Flight Track Log - Related Links

Times and Time Zones

All times are in EDT time to prevent confusion due to time zone crossing. See the EJA941 flight status page for this flight to view local times or setup timezone preferences in your user account.

Time Position Orientation Groundspeed Altitude Reporting Facility
EDT Latitude Longitude Course Direction KTS MPH feet Rate Location/Type
Mon 10:56:04 AM 27.9000 -82.6833 221° Southwest 180 207 800  Level Tampa TRACON
Mon 10:56:47 AM 27.8667 -82.7167 221° Southwest 220 253 1,700 765 Climbing Tampa TRACON
Mon 10:57:46 AM 27.8167 -82.7667 221° Southwest 226 260 2,100 2,370 Climbing Tampa TRACON
Mon 10:58:46 AM 27.8333 -82.8167 291° West 249 287 6,400 2,814 Climbing Tampa TRACON
Mon 11:01:00 AM 27.9914 -82.7797 12° North 270 311 11,200 2,103 Climbing Jacksonville Center
Mon 11:02:00 AM 28.0831 -82.7539 14° North 310 357 13,200 1,950 Climbing Jacksonville Center
Mon 11:03:00 AM 28.1811 -82.7253 14° North 342 394 15,100 1,850 Climbing Jacksonville Center
Mon 11:04:00 AM 28.2769 -82.6944 16° North 352 405 16,900 1,400 Climbing Jacksonville Center
Mon 11:05:00 AM 28.3750 -82.6636 15° North 358 412 17,900 800 Climbing Jacksonville Center
Mon 11:06:00 AM 28.4939 -82.6256 16° North 378 435 18,500 800 Climbing Jacksonville Center
Mon 11:07:00 AM 28.6086 -82.6111 North 399 459 19,500 1,200 Climbing Jacksonville Center
Mon 11:08:00 AM 28.7256 -82.6297 352° North 415 478 20,900 1,000 Climbing Jacksonville Center
Mon 11:09:00 AM 28.8489 -82.6508 351° North 421 484 21,500 1,000 Climbing Jacksonville Center
Mon 11:10:00 AM 28.9678 -82.6719 351° North 427 491 22,900 1,450 Climbing Jacksonville Center
Mon 11:11:00 AM 29.0869 -82.6906 352° North 427 491 24,400 1,500 Climbing Jacksonville Center
Mon 11:12:00 AM 29.2100 -82.7094 352° North 427 491 25,900 1,500 Climbing Jacksonville Center
Mon 11:13:00 AM 29.3292 -82.7306 351° North 427 491 27,400 1,500 Climbing Jacksonville Center
Mon 11:14:00 AM 29.4500 -82.7208 North 427 491 28,900 1,500 Climbing Jacksonville Center
Mon 11:15:00 AM 29.5775 -82.7136 North 434 499 30,400 1,500 Climbing Jacksonville Center
Mon 11:16:00 AM 29.7006 -82.7014 North 439 505 31,900 1,400 Climbing Jacksonville Center
Mon 11:17:00 AM 29.8300 -82.6892 North 449 517 33,200 1,300 Climbing Jacksonville Center
Mon 11:18:00 AM 29.9575 -82.7008 355° North 449 517 34,500 850 Climbing Jacksonville Center
Mon 11:19:00 AM 30.0783 -82.6839 North 471 542 34,900 200 Climbing Jacksonville Center
Mon 11:20:00 AM 30.2183 -82.6667 North 483 556 34,900  Level Jacksonville Center
Mon 11:21:00 AM 30.3622 -82.6469 North 505 581 34,900 750 Level Jacksonville Center
Mon 11:22:00 AM 30.5211 -82.6344 North 511 588 36,400 1,650 Climbing Jacksonville Center
Mon 11:23:00 AM 30.6544 -82.6172 North 506 582 38,200 1,800 Climbing Jacksonville Center
Mon 11:24:00 AM 30.7944 -82.6022 North 500 575 40,000 1,350 Climbing Jacksonville Center
Mon 11:25:00 AM 30.9258 -82.5875 North 493 567 40,900 450 Climbing Jacksonville Center
Mon 11:26:00 AM 31.0658 -82.5675 North 493 567 40,900  Level Jacksonville Center
Mon 11:27:00 AM 31.2078 -82.5500 North 500 575 40,900  Level Jacksonville Center
Mon 11:28:00 AM 31.3475 -82.5350 North 500 575 40,900  Level Jacksonville Center
Mon 11:29:00 AM 31.4894 -82.5125 North 508 585 40,900  Level Jacksonville Center
Mon 11:30:42 AM 31.7200 -82.4789 North 549 632 40,900  Level Atlanta Center
Mon 11:31:42 AM 31.8594 -82.4567 North 524 603 40,900  Level Atlanta Center
Mon 11:32:42 AM 32.0033 -82.4372 North 510 587 40,900  Level Atlanta Center
Mon 11:33:42 AM 32.1408 -82.4150 North 504 580 40,900  Level Atlanta Center
Mon 11:34:42 AM 32.2908 -82.3903 North 497 572 40,900  Level Atlanta Center
Mon 11:35:42 AM 32.4344 -82.3703 North 503 579 40,900  Level Atlanta Center
Mon 11:36:42 AM 32.5739 -82.3456 North 503 579 40,900  Level Atlanta Center
Mon 11:37:42 AM 32.7156 -82.3206 North 503 579 40,900  Level Atlanta Center
Mon 11:38:42 AM 32.8572 -82.3006 North 503 579 40,900  Level Atlanta Center
Mon 11:39:42 AM 33.0014 -82.3025 359° North 503 579 40,900  Level Atlanta Center
Mon 11:40:42 AM 33.1433 -82.3072 358° North 503 579 40,900  Level Atlanta Center
Mon 11:41:42 AM 33.2875 -82.3117 359° North 509 586 40,900  Level Atlanta Center
Mon 11:42:42 AM 33.4317 -82.3189 358° North 517 595 40,900  Level Atlanta Center
Mon 11:43:42 AM 33.5736 -82.3233 359° North 517 595 40,900  Level Atlanta Center
Mon 11:44:42 AM 33.7197 -82.3281 358° North 522 601 40,900  Level Atlanta Center
Mon 11:45:42 AM 33.8472 -82.3331 358° North 516 594 40,900  Level Atlanta Center
Mon 11:46:42 AM 33.9869 -82.3378 358° North 511 588 40,900  Level Atlanta Center
Mon 11:47:42 AM 34.1311 -82.3447 358° North 511 588 40,900  Level Atlanta Center
Mon 11:48:42 AM 34.2753 -82.3494 358° North 517 595 40,900  Level Atlanta Center
Mon 11:49:42 AM 34.4150 -82.3542 358° North 511 588 40,900  Level Atlanta Center
Mon 11:50:42 AM 34.5550 -82.3589 358° North 506 582 40,900  Level Atlanta Center
Mon 11:51:42 AM 34.6989 -82.3636 358° North 506 582 40,900  Level Atlanta Center
Mon 11:52:42 AM 34.8389 -82.3711 357° North 501 577 40,900  Level Atlanta Center
Mon 11:53:42 AM 34.9808 -82.3758 358° North 501 577 40,900  Level Atlanta Center
Mon 11:54:42 AM 35.1375 -82.3778 359° North 501 577 40,900  Level Atlanta Center
Mon 11:55:42 AM 35.2692 -82.3903 356° North 515 593 40,900  Level Atlanta Center
Mon 11:56:42 AM 35.4089 -82.3953 358° North 515 593 40,900  Level Atlanta Center
Mon 11:57:42 AM 35.5531 -82.4000 358° North 520 598 40,900  Level Atlanta Center
Mon 11:58:42 AM 35.7075 -82.4072 358° North 512 589 40,900  Level Atlanta Center
Mon 11:59:42 AM 35.8472 -82.4069 360° North 507 583 40,900  Level Atlanta Center
Mon 12:00:42 PM 35.9911 -82.4142 358° North 507 583 40,900  Level Atlanta Center
Mon 12:01:42 PM 36.1292 -82.4269 356° North 502 578 40,900  Level Atlanta Center
Mon 12:02:42 PM 36.2483 -82.4503 351° North 497 572 40,900  Level Atlanta Center
Mon 12:05:07 PM 36.5867 -82.5086 352° North 495 570 40,900 29 Level Indianapolis Center
Mon 12:06:09 PM 36.7222 -82.5322 352° North 495 570 41,000  Climbing Indianapolis Center
Mon 12:07:11 PM 36.8581 -82.5569 352° North 496 571 40,900 -49 Descending Indianapolis Center
Mon 12:08:12 PM 37.0147 -82.5831 352° North 491 565 40,900  Level Indianapolis Center
Mon 12:09:14 PM 37.1481 -82.6072 352° North 488 562 40,900  Level Indianapolis Center
Mon 12:10:16 PM 37.2819 -82.6314 352° North 487 560 40,900  Level Indianapolis Center
Mon 12:11:18 PM 37.4156 -82.6561 352° North 485 558 40,900  Level Indianapolis Center
Mon 12:12:20 PM 37.5494 -82.6808 352° North 487 560 40,900 48 Level Indianapolis Center
Mon 12:13:22 PM 37.7072 -82.7097 352° North 492 566 41,000  Climbing Indianapolis Center
Mon 12:14:23 PM 37.8422 -82.7356 351° North 490 564 40,900 -49 Descending Indianapolis Center
Mon 12:15:25 PM 37.9786 -82.7589 352° North 492 566 40,900  Level Indianapolis Center
Mon 12:16:27 PM 38.1128 -82.7833 352° North 488 562 40,900 48 Level Indianapolis Center
Mon 12:17:29 PM 38.2478 -82.8086 352° North 487 560 41,000  Climbing Indianapolis Center
Mon 12:18:31 PM 38.3825 -82.8353 351° North 488 562 40,900 -48 Descending Indianapolis Center
Mon 12:19:33 PM 38.5397 -82.8644 352° North 489 563 40,900  Level Indianapolis Center
Mon 12:20:35 PM 38.6758 -82.8897 352° North 488 562 40,900  Level Indianapolis Center
Mon 12:21:36 PM 38.8086 -82.9144 352° North 481 554 40,900 49 Level Indianapolis Center
Mon 12:22:38 PM 38.9383 -82.9403 351° North 471 542 41,000  Climbing Indianapolis Center
Mon 12:23:40 PM 39.0667 -82.9647 352° North 466 536 40,900 -48 Descending Indianapolis Center
Mon 12:24:42 PM 39.2133 -82.9911 352° North 479 551 40,900  Level Indianapolis Center
Mon 12:25:44 PM 39.3431 -83.0150 352° North 470 541 40,900  Level Indianapolis Center
Mon 12:26:45 PM 39.4728 -83.0406 351° North 468 539 40,900  Level Indianapolis Center
Mon 12:27:47 PM 39.6019 -83.0650 352° North 468 539 40,900  Level Indianapolis Center
Mon 12:28:49 PM 39.7328 -83.0892 352° North 473 544 40,900  Level Indianapolis Center
Mon 12:29:51 PM 39.8639 -83.1142 352° North 476 548 40,900  Level Indianapolis Center
Mon 12:30:53 PM 40.0142 -83.1439 351° North 470 541 40,900  Level Indianapolis Center
Mon 12:31:54 PM 40.1433 -83.1692 351° North 469 540 40,900  Level Indianapolis Center
Mon 12:32:56 PM 40.2736 -83.1947 351° North 471 542 40,900  Level Indianapolis Center
Mon 12:33:58 PM 40.4056 -83.2214 351° North 475 547 40,900  Level Indianapolis Center
Mon 12:35:00 PM 40.5375 -83.2467 352° North 476 548 40,900  Level Indianapolis Center
Mon 12:36:02 PM 40.6708 -83.2733 351° North 480 552 40,900 -49 Level Indianapolis Center
Mon 12:37:03 PM 40.8089 -83.3003 352° North 482 555 40,800 -743 Descending Indianapolis Center
Mon 12:37:47 PM 40.9181 -83.3256 350° North 484 557 39,600 -1,558 Descending Cleveland Center
Mon 12:38:47 PM 41.0489 -83.3503 352° North 476 548 38,100 -1,300 Descending Cleveland Center
Mon 12:39:47 PM 41.1589 -83.3714 352° North 454 522 37,000 -600 Descending Cleveland Center
Mon 12:40:47 PM 41.2894 -83.3992 351° North 454 522 36,900 -150 Descending Cleveland Center
Mon 12:41:47 PM 41.4222 -83.4272 351° North 473 544 36,700 -500 Descending Cleveland Center
Mon 12:42:47 PM 41.5569 -83.4553 351° North 484 557 35,900 -1,450 Descending Cleveland Center
Mon 12:43:47 PM 41.6919 -83.4808 352° North 484 557 33,800 -2,250 Descending Cleveland Center
Mon 12:44:47 PM 41.8289 -83.5092 351° North 484 557 31,400 -1,450 Descending Cleveland Center
Mon 12:45:47 PM 41.9800 -83.5442 350° North 492 566 30,900 -1,500 Descending Cleveland Center
Mon 12:46:47 PM 42.1211 -83.5703 352° North 506 582 28,400 -2,350 Descending Cleveland Center
Mon 12:47:47 PM 42.2636 -83.5406 North 498 573 26,200 -1,850 Descending Cleveland Center
Mon 12:48:47 PM 42.3917 -83.5072 11° North 486 559 24,700 -1,500 Descending Cleveland Center
Mon 12:49:47 PM 42.5239 -83.4711 11° North 486 559 23,200 -1,550 Descending Cleveland Center
Mon 12:50:47 PM 42.6514 -83.4572 North 473 544 21,600 -1,950 Descending Cleveland Center
Mon 12:51:47 PM 42.7667 -83.5189 339° North 446 513 19,300 -2,350 Descending Cleveland Center
Mon 12:52:47 PM 42.8842 -83.5756 341° North 446 513 16,900 -2,750 Descending Cleveland Center
Mon 12:53:47 PM 42.9889 -83.6317 339° North 428 493 13,800 -2,450 Descending Cleveland Center
Mon 12:54:47 PM 43.0853 -83.6903 336° Northwest 404 465 12,000 -1,400 Descending Cleveland Center
Mon 12:55:47 PM 43.1714 -83.7403 337° Northwest 371 427 11,000 -1,050 Descending Cleveland Center
Mon 12:56:47 PM 43.2536 -83.7900 336° Northwest 339 390 9,900 -1,450 Descending Cleveland Center
Mon 12:57:47 PM 43.3169 -83.8306 335° Northwest 295 339 8,100 -1,950 Descending Cleveland Center
Mon 12:58:47 PM 43.3908 -83.8744 337° Northwest 282 325 6,000 -2,300 Descending Cleveland Center
Mon 12:59:47 PM 43.4667 -83.9183 337° Northwest 276 318 3,500 -1,700 Descending Cleveland Center
Mon 01:00:47 PM 43.5281 -83.9561 336° Northwest 259 298 2,600 -500 Descending Cleveland Center
Mon 01:01:47 PM 43.5667 -83.9928 325° Northwest 211 243 2,500 -650 Descending Cleveland Center
Mon 01:02:47 PM 43.5589 -84.0439 258° West 155 178 1,300 -900 Descending Cleveland Center
Mon 01:03:47 PM 43.5369 -84.0769 228° Southwest 111 128 700 -600 Descending Cleveland Center
Mon 01:05:00 PM 43.5329 -84.0796 206° Southwest  Level Estimated
Mon 01:12:00 PM 43.5329 -84.0796 166° South  Level Estimated

Login

Don't have an account? Register now (free) for customized features, flight alerts, and more!